Time;durP1;ratioP1;P1;durP2;ratioP2;P2;SDS_P1;SDS_P2;PMS_P1;PMS_P2;Temp;Humidity;BMP_temperature;BMP_pressure;BME280_temperature;BME280_humidity;BME280_pressure;Samples;Min_cycle;Max_cycle;Signal;HPM_P1;HPM_P2
2022/07/14 00:00:40;;;;;;;2.80;1.00;;;23.20;64.30;;;;;;5068478;27;44204;-60
2022/07/14 00:03:07;;;;;;;1.35;0.90;;;23.20;65.00;;;;;;5077282;27;43547;-60
2022/07/14 00:05:35;;;;;;;1.30;0.93;;;23.10;64.30;;;;;;5069344;28;43477;-60
2022/07/14 00:08:04;;;;;;;1.30;0.82;;;23.10;64.30;;;;;;5070145;27;43599;-60
2022/07/14 00:10:31;;;;;;;2.13;1.27;;;23.10;64.30;;;;;;5080946;27;44978;-60
2022/07/14 00:12:59;;;;;;;1.85;1.00;;;23.10;64.30;;;;;;5067085;28;43959;-60
2022/07/14 00:15:26;;;;;;;1.92;1.00;;;23.10;64.30;;;;;;5073343;27;43421;-60
2022/07/14 00:17:56;;;;;;;2.53;1.33;;;23.10;64.30;;;;;;5066333;28;43676;-60
2022/07/14 00:20:25;;;;;;;1.17;0.93;;;23.10;64.30;;;;;;5067085;27;44742;-60
2022/07/14 00:22:55;;;;;;;1.33;0.93;;;23.10;64.30;;;;;;5065759;28;43946;-60
2022/07/14 00:25:24;;;;;;;1.58;0.90;;;23.10;64.90;;;;;;5065546;28;43736;-60
2022/07/14 00:27:52;;;;;;;1.35;0.93;;;23.10;64.30;;;;;;5067909;28;43593;-60
2022/07/14 00:30:20;;;;;;;1.13;0.90;;;23.10;64.30;;;;;;5066190;28;44987;-60
2022/07/14 00:32:48;;;;;;;1.35;0.90;;;23.00;64.20;;;;;;5058504;28;43476;-60
2022/07/14 00:35:15;;;;;;;1.85;1.02;;;23.00;64.30;;;;;;5082716;28;43446;-59
2022/07/14 00:37:43;;;;;;;2.25;1.08;;;23.00;64.30;;;;;;5078014;27;43593;-60
2022/07/14 00:40:10;;;;;;;1.45;0.80;;;23.00;64.20;;;;;;5072995;28;45026;-60
2022/07/14 00:42:40;;;;;;;1.52;1.15;;;23.00;64.20;;;;;;5064372;28;43525;-59
2022/07/14 00:45:13;;;;;;;1.98;1.17;;;23.00;64.20;;;;;;5065572;28;44064;-60
2022/07/14 00:47:41;;;;;;;2.20;1.17;;;23.00;64.30;;;;;;5068549;28;43545;-60
2022/07/14 00:50:11;;;;;;;1.40;0.80;;;22.90;64.20;;;;;;5065578;28;45114;-60
2022/07/14 00:52:44;;;;;;;2.33;1.30;;;22.90;64.30;;;;;;5070485;28;43962;-60
2022/07/14 00:55:13;;;;;;;2.70;1.00;;;22.90;64.30;;;;;;5075063;28;43489;-59
2022/07/14 00:57:40;;;;;;;1.30;0.80;;;22.90;64.30;;;;;;5083220;28;43653;-60
2022/07/14 01:00:11;;;;;;;1.42;0.90;;;22.90;64.30;;;;;;5081173;28;44947;-59
2022/07/14 01:02:39;;;;;;;1.23;0.90;;;22.90;64.30;;;;;;5067131;28;43950;-60
2022/07/14 01:05:07;;;;;;;2.17;1.00;;;22.90;64.30;;;;;;5066270;28;43439;-60
2022/07/14 01:07:34;;;;;;;0.75;0.73;;;22.90;64.30;;;;;;5065670;27;43619;-60
2022/07/14 01:10:02;;;;;;;2.78;1.20;;;22.90;64.30;;;;;;5065306;28;44220;-60
2022/07/14 01:12:31;;;;;;;1.45;0.93;;;22.90;64.30;;;;;;5065522;28;43974;-59
2022/07/14 01:14:59;;;;;;;1.60;0.80;;;22.80;64.30;;;;;;5065729;28;43394;-60
2022/07/14 01:17:26;;;;;;;1.70;0.90;;;22.80;64.30;;;;;;5066735;28;43648;-60
2022/07/14 01:19:54;;;;;;;1.40;0.90;;;22.80;64.30;;;;;;5065032;28;44011;-60
2022/07/14 01:22:54;;;;;;;1.52;0.90;;;22.80;64.30;;;;;;5064760;28;43480;-60
2022/07/14 01:25:22;;;;;;;2.03;0.98;;;22.80;64.30;;;;;;5065066;28;43511;-59
2022/07/14 01:27:49;;;;;;;1.70;0.98;;;22.80;64.30;;;;;;5064103;28;43423;-60
2022/07/14 01:30:17;;;;;;;1.67;0.90;;;22.80;64.30;;;;;;5075674;28;44861;-60
2022/07/14 01:32:45;;;;;;;1.10;0.80;;;22.80;64.30;;;;;;5088623;27;43658;-60
2022/07/14 01:35:12;;;;;;;1.25;0.73;;;22.80;64.30;;;;;;5097153;27;43457;-60
2022/07/14 01:37:40;;;;;;;0.80;0.80;;;22.80;64.30;;;;;;5074167;27;43438;-60
2022/07/14 01:40:09;;;;;;;1.95;1.20;;;22.80;64.30;;;;;;5074524;28;44630;-59
2022/07/14 01:42:36;;;;;;;1.67;0.80;;;22.80;64.30;;;;;;5068022;27;43478;-59
2022/07/14 01:45:04;;;;;;;1.25;0.90;;;22.80;64.40;;;;;;5080538;27;43395;-60
2022/07/14 01:47:32;;;;;;;1.88;0.95;;;22.70;64.30;;;;;;5064740;28;43569;-60
2022/07/14 01:50:00;;;;;;;1.77;0.80;;;22.70;64.30;;;;;;5087535;27;43802;-60
2022/07/14 01:52:31;;;;;;;0.82;0.60;;;22.70;64.30;;;;;;5080972;28;43986;-60
2022/07/14 01:54:59;;;;;;;1.70;0.73;;;22.70;64.30;;;;;;5067779;28;43713;-60
2022/07/14 01:57:26;;;;;;;0.70;0.70;;;22.70;64.30;;;;;;5089947;27;43511;-60
2022/07/14 01:59:55;;;;;;;0.88;0.77;;;22.70;64.90;;;;;;5067916;28;43818;-59
2022/07/14 02:02:23;;;;;;;0.93;0.68;;;22.70;64.30;;;;;;5061085;28;43795;-59
2022/07/14 02:04:50;;;;;;;1.90;1.02;;;22.70;64.30;;;;;;5063414;28;43367;-60
2022/07/14 02:07:18;;;;;;;1.98;1.05;;;22.70;64.20;;;;;;5069893;28;43551;-60
2022/07/14 02:12:46;;;;;;;0.93;0.82;;;22.70;64.20;;;;;;5067141;28;43822;-59
2022/07/14 02:15:14;;;;;;;1.90;1.10;;;22.60;64.20;;;;;;5078047;28;43428;-60
2022/07/14 02:17:42;;;;;;;1.50;0.75;;;22.60;64.90;;;;;;5066890;28;43576;-60
2022/07/14 02:20:10;;;;;;;1.52;0.85;;;22.60;64.30;;;;;;5096581;27;44685;-60
2022/07/14 02:22:39;;;;;;;0.70;0.70;;;22.60;64.30;;;;;;5063189;28;43445;-60
2022/07/14 02:25:07;;;;;;;0.93;0.80;;;22.60;64.30;;;;;;5063416;28;43448;-60
2022/07/14 02:27:35;;;;;;;1.15;0.80;;;22.60;64.30;;;;;;5073637;28;43577;-60
2022/07/14 02:30:03;;;;;;;1.73;0.90;;;22.60;64.30;;;;;;5066109;28;44098;-60
2022/07/14 02:32:31;;;;;;;1.30;0.90;;;22.60;64.30;;;;;;5067792;28;43991;-60
2022/07/14 02:34:59;;;;;;;1.20;0.75;;;22.60;64.30;;;;;;5070730;28;43401;-60
2022/07/14 02:37:26;;;;;;;0.90;0.70;;;22.60;64.30;;;;;;5074020;28;43550;-60
2022/07/14 02:39:53;;;;;;;1.08;0.80;;;22.60;64.30;;;;;;5072591;27;43733;-60
2022/07/14 02:42:21;;;;;;;1.42;0.80;;;22.50;64.20;;;;;;5069045;28;43449;-59
2022/07/14 02:44:48;;;;;;;2.30;1.15;;;22.50;64.20;;;;;;5069665;28;43448;-60
2022/07/14 02:47:16;;;;;;;1.42;1.00;;;22.50;64.20;;;;;;5064448;28;43601;-60
2022/07/14 02:49:43;;;;;;;1.63;0.90;;;22.50;64.20;;;;;;5066272;28;45008;-60
2022/07/14 02:52:10;;;;;;;1.23;0.82;;;22.50;64.20;;;;;;5067652;28;43484;-60
2022/07/14 02:54:41;;;;;;;2.50;0.93;;;22.50;64.20;;;;;;5062616;28;43993;-60
2022/07/14 02:57:08;;;;;;;1.35;0.95;;;22.50;64.30;;;;;;5062982;28;43565;-60
2022/07/14 02:59:35;;;;;;;1.00;0.70;;;22.50;64.30;;;;;;5078606;27;44824;-59
2022/07/14 03:02:03;;;;;;;1.70;0.90;;;22.50;64.20;;;;;;5071560;28;43445;-60
2022/07/14 03:04:30;;;;;;;1.58;0.80;;;22.50;64.20;;;;;;5067456;28;43396;-59
2022/07/14 03:06:57;;;;;;;2.03;0.95;;;22.50;64.20;;;;;;5066649;28;44020;-60
2022/07/14 03:09:26;;;;;;;1.63;0.90;;;22.50;64.20;;;;;;5071222;28;44786;-60
2022/07/14 03:11:54;;;;;;;1.27;0.90;;;22.40;64.10;;;;;;5072937;28;44064;-59
2022/07/14 03:14:22;;;;;;;1.25;0.70;;;22.40;64.80;;;;;;5075771;28;43420;-60
2022/07/14 03:16:49;;;;;;;2.20;0.80;;;22.40;64.20;;;;;;5070584;28;43592;-60
2022/07/14 03:19:17;;;;;;;0.63;0.63;;;22.40;64.10;;;;;;5069050;27;44965;-60
2022/07/14 03:21:46;;;;;;;0.70;0.47;;;22.40;64.20;;;;;;5078907;28;43396;-59
2022/07/14 03:24:15;;;;;;;0.88;0.88;;;22.40;64.10;;;;;;5072918;28;43444;-59
2022/07/14 03:26:43;;;;;;;1.13;0.80;;;22.40;64.10;;;;;;5067704;28;43533;-60
2022/07/14 03:29:11;;;;;;;1.73;1.00;;;22.40;64.20;;;;;;5080228;28;44976;-60
2022/07/14 03:31:39;;;;;;;1.45;0.80;;;22.40;64.20;;;;;;5063652;28;43412;-59
2022/07/14 03:34:12;;;;;;;1.65;0.88;;;22.40;64.20;;;;;;5080505;28;43387;-60
2022/07/14 03:36:41;;;;;;;2.17;1.10;;;22.40;64.20;;;;;;5071121;28;43487;-59
2022/07/14 03:39:19;;;;;;;1.58;0.80;;;22.30;64.20;;;;;;5070214;28;43921;-60
2022/07/14 03:41:47;;;;;;;0.82;0.70;;;22.30;64.10;;;;;;5082452;28;43979;-59
2022/07/14 03:44:14;;;;;;;1.67;0.88;;;22.40;64.10;;;;;;5071389;28;43447;-59
2022/07/14 03:46:42;;;;;;;0.77;0.70;;;22.40;64.20;;;;;;5067621;28;43515;-59
2022/07/14 03:49:16;;;;;;;1.05;0.80;;;22.30;64.00;;;;;;5065044;28;43801;-59
2022/07/14 03:51:44;;;;;;;1.15;0.70;;;22.30;64.10;;;;;;5074793;28;43959;-59
2022/07/14 03:54:16;;;;;;;0.85;0.70;;;22.30;64.00;;;;;;5069451;28;43416;-60
2022/07/14 03:56:43;;;;;;;1.02;0.90;;;22.30;64.10;;;;;;5079777;28;43459;-60
2022/07/14 03:59:11;;;;;;;1.23;0.85;;;22.20;64.10;;;;;;5078051;28;44819;-59
2022/07/14 04:01:39;;;;;;;1.08;0.65;;;22.30;64.10;;;;;;5074229;28;43519;-59
2022/07/14 04:04:07;;;;;;;0.98;0.70;;;22.30;64.10;;;;;;5068458;28;43493;-60
2022/07/14 04:06:34;;;;;;;1.98;0.90;;;22.30;64.20;;;;;;5072104;28;43939;-60
2022/07/14 04:09:03;;;;;;;1.15;0.70;;;22.30;64.20;;;;;;5078438;28;44041;-60
2022/07/14 04:11:34;;;;;;;1.67;0.70;;;22.30;64.10;;;;;;5063586;28;43685;-59
2022/07/14 04:14:01;;;;;;;1.30;0.80;;;22.20;64.00;;;;;;5068074;28;43423;-59
2022/07/14 04:16:30;;;;;;;1.25;0.85;;;22.20;64.10;;;;;;5080946;27;43471;-60
2022/07/14 04:18:58;;;;;;;0.82;0.70;;;22.20;64.10;;;;;;5069564;28;43808;-59
2022/07/14 04:21:26;;;;;;;0.90;0.70;;;22.20;64.00;;;;;;5065635;28;43482;-60
2022/07/14 04:23:53;;;;;;;1.02;0.80;;;22.20;64.10;;;;;;5066594;28;43590;-59
2022/07/14 04:26:20;;;;;;;1.15;0.75;;;22.20;64.10;;;;;;5068963;28;43478;-59
2022/07/14 04:28:48;;;;;;;1.67;1.02;;;22.20;64.10;;;;;;5074229;28;43774;-60
2022/07/14 04:31:15;;;;;;;1.35;0.70;;;22.20;64.10;;;;;;5066001;28;43728;-60
2022/07/14 04:33:43;;;;;;;1.23;0.52;;;22.20;64.10;;;;;;5096012;27;43467;-59
2022/07/14 04:36:12;;;;;;;1.30;0.68;;;22.10;64.00;;;;;;5068878;28;43450;-59
2022/07/14 04:38:39;;;;;;;0.70;0.70;;;22.10;64.00;;;;;;5066693;27;44839;-59
2022/07/14 04:41:07;;;;;;;0.93;0.77;;;22.10;64.00;;;;;;5071671;27;43433;-59
2022/07/14 04:43:38;;;;;;;1.30;0.75;;;22.10;64.00;;;;;;5081113;28;43679;-59
2022/07/14 04:46:08;;;;;;;1.50;0.70;;;22.10;64.00;;;;;;5048928;28;43551;-59
2022/07/14 04:54:20;;;;;;;0.77;0.60;;;22.10;64.10;;;;;;5072623;28;43399;-59
2022/07/14 04:57:06;;;;;;;1.70;0.80;;;22.10;64.10;;;;;;5083685;28;43426;-60
2022/07/14 04:59:37;;;;;;;;;;;22.00;64.00;;;;;;5078537;28;44847;-58
2022/07/14 05:02:04;;;;;;;1.67;0.80;;;22.00;64.10;;;;;;5071952;28;44095;-59
2022/07/14 05:04:32;;;;;;;1.40;0.80;;;22.00;64.20;;;;;;5072875;28;43496;-59
2022/07/14 05:07:02;;;;;;;1.48;0.85;;;22.00;64.20;;;;;;5078854;28;43448;-59
2022/07/14 05:09:33;;;;;;;1.13;0.73;;;22.00;64.10;;;;;;5048312;28;44770;-60
2022/07/14 05:12:03;;;;;;;1.33;0.80;;;22.00;64.00;;;;;;5074465;28;43931;-60
2022/07/14 05:14:31;;;;;;;0.73;0.70;;;22.00;64.10;;;;;;5068925;28;43463;-60
2022/07/14 05:17:01;;;;;;;1.33;0.80;;;22.00;64.10;;;;;;5096644;27;43485;-60
2022/07/14 05:19:51;;;;;;;1.48;0.77;;;22.00;64.10;;;;;;5057332;28;46008;-60
2022/07/14 05:22:19;;;;;;;0.77;0.65;;;22.00;64.10;;;;;;5070386;28;43417;-60
2022/07/14 05:24:47;;;;;;;2.08;0.73;;;22.00;64.20;;;;;;5064318;28;43444;-60
2022/07/14 05:27:14;;;;;;;0.95;0.60;;;22.00;64.20;;;;;;5064340;28;43645;-60
2022/07/14 05:29:43;;;;;;;1.20;0.80;;;22.00;64.20;;;;;;5069164;28;44140;-60
2022/07/14 05:32:11;;;;;;;1.15;0.70;;;22.00;64.10;;;;;;5065509;28;43831;-60
2022/07/14 05:34:46;;;;;;;1.05;0.70;;;22.00;64.20;;;;;;5081037;28;43437;-60
2022/07/14 05:37:16;;;;;;;1.02;0.70;;;22.00;64.20;;;;;;5071869;28;43519;-60
2022/07/14 05:39:45;;;;;;;0.77;0.60;;;22.00;64.20;;;;;;5055633;28;44954;-60
2022/07/14 05:42:13;;;;;;;0.60;0.60;;;22.00;64.10;;;;;;5076777;28;43724;-60
2022/07/14 05:44:41;;;;;;;1.20;0.70;;;22.00;64.10;;;;;;5066332;28;43416;-60
2022/07/14 05:47:08;;;;;;;0.98;0.55;;;22.00;64.10;;;;;;5064055;28;43582;-60
2022/07/14 05:49:43;;;;;;;1.75;0.52;;;22.00;64.10;;;;;;5072410;28;44723;-60
2022/07/14 05:52:12;;;;;;;1.20;0.70;;;22.00;64.00;;;;;;5081692;28;43463;-59
2022/07/14 05:54:40;;;;;;;0.55;0.50;;;22.00;64.00;;;;;;5066576;27;43418;-60
2022/07/14 05:57:13;;;;;;;1.25;0.77;;;22.00;64.00;;;;;;5064771;28;43481;-60
2022/07/14 05:59:42;;;;;;;0.88;0.70;;;21.90;63.90;;;;;;5079850;28;45112;-59
2022/07/14 06:02:13;;;;;;;1.63;1.00;;;21.90;64.00;;;;;;5078779;28;44067;-59
2022/07/14 06:04:41;;;;;;;0.95;0.70;;;22.00;64.00;;;;;;5094727;27;43523;-59
2022/07/14 06:07:09;;;;;;;1.02;0.60;;;21.90;63.90;;;;;;5069401;28;43441;-59
2022/07/14 06:09:39;;;;;;;1.50;0.82;;;22.00;63.90;;;;;;5071763;28;44795;-60
2022/07/14 06:12:09;;;;;;;0.88;0.70;;;22.00;64.00;;;;;;5065724;28;43573;-59
2022/07/14 06:14:40;;;;;;;0.98;0.82;;;21.90;63.90;;;;;;5067701;28;43475;-60
2022/07/14 06:17:10;;;;;;;2.73;1.10;;;21.90;64.00;;;;;;5071898;28;43594;-59
2022/07/14 06:19:38;;;;;;;1.02;0.75;;;21.90;64.00;;;;;;5096870;27;44029;-59
2022/07/14 06:22:06;;;;;;;1.05;0.80;;;21.90;64.00;;;;;;5094295;27;43569;-59
2022/07/14 06:24:36;;;;;;;0.88;0.70;;;22.00;64.00;;;;;;5062689;28;43404;-59
2022/07/14 06:27:12;;;;;;;1.63;0.90;;;21.90;63.90;;;;;;5075583;28;43596;-60
2022/07/14 06:29:40;;;;;;;0.68;0.63;;;22.00;63.90;;;;;;5083964;27;44691;-60
2022/07/14 06:32:07;;;;;;;0.52;0.52;;;22.00;63.90;;;;;;5065099;28;43991;-59
2022/07/14 06:34:36;;;;;;;0.60;0.40;;;22.00;63.90;;;;;;5090801;27;43606;-59
2022/07/14 06:37:20;;;;;;;0.52;0.50;;;22.00;63.90;;;;;;5071586;28;44056;-60
2022/07/14 06:39:48;;;;;;;0.93;0.57;;;22.00;63.90;;;;;;5079326;28;44978;-59
2022/07/14 06:42:17;;;;;;;0.90;0.55;;;21.90;63.80;;;;;;5091444;27;43958;-59
2022/07/14 06:45:05;;;;;;;1.50;0.85;;;22.00;63.90;;;;;;5053584;28;43433;-59
2022/07/14 06:47:33;;;;;;;1.23;0.70;;;22.00;63.90;;;;;;5071534;27;43515;-60
2022/07/14 06:50:00;;;;;;;1.08;0.50;;;21.90;63.80;;;;;;5073282;28;45169;-60
2022/07/14 06:52:28;;;;;;;0.65;0.47;;;22.00;63.90;;;;;;5074736;28;43595;-60
2022/07/14 06:54:58;;;;;;;1.42;0.70;;;22.00;63.80;;;;;;5067697;28;43427;-60
2022/07/14 06:57:26;;;;;;;0.90;0.60;;;21.90;63.80;;;;;;5068500;28;43868;-59
2022/07/14 06:59:54;;;;;;;1.58;0.70;;;22.00;63.90;;;;;;5079390;27;44059;-59
2022/07/14 07:02:21;;;;;;;0.60;0.50;;;21.90;63.80;;;;;;5071282;28;43953;-60
2022/07/14 07:06:43;;;;;;;0.90;0.50;;;21.90;63.80;;;;;;5067252;28;43426;-60
2022/07/14 07:07:36;;;;;;;0.50;0.50;;;21.90;63.80;;;;;;5080986;28;43587;-59
2022/07/14 07:10:05;;;;;;;1.90;0.73;;;21.90;63.80;;;;;;5066943;28;44138;-59
2022/07/14 07:12:32;;;;;;;0.70;0.47;;;21.90;63.80;;;;;;5066402;28;43912;-59
2022/07/14 07:14:59;;;;;;;1.15;0.45;;;21.90;63.80;;;;;;5069308;28;43446;-60
2022/07/14 07:17:26;;;;;;;1.05;0.68;;;22.00;63.80;;;;;;5073654;28;43607;-60
2022/07/14 07:19:54;;;;;;;0.63;0.55;;;21.90;63.70;;;;;;5066201;28;44066;-60
2022/07/14 07:22:21;;;;;;;1.17;0.57;;;21.90;63.70;;;;;;5067351;28;43980;-59
2022/07/14 07:24:48;;;;;;;0.85;0.40;;;21.90;63.70;;;;;;5069342;28;43464;-60
2022/07/14 07:27:15;;;;;;;0.70;0.50;;;21.90;63.70;;;;;;5066818;27;43621;-60
2022/07/14 07:29:43;;;;;;;0.57;0.50;;;21.90;63.70;;;;;;5066946;28;44903;-60
2022/07/14 07:32:11;;;;;;;0.60;0.30;;;21.90;63.70;;;;;;5068501;28;44035;-59
2022/07/14 07:34:38;;;;;;;1.27;0.40;;;22.00;63.80;;;;;;5081376;27;43405;-59
2022/07/14 07:37:06;;;;;;;1.15;0.68;;;21.90;63.80;;;;;;5067048;27;43613;-60
2022/07/14 07:39:52;;;;;;;0.45;0.45;;;21.90;63.70;;;;;;5077167;28;44185;-60
2022/07/14 07:42:20;;;;;;;0.60;0.50;;;21.90;63.80;;;;;;5070072;27;43494;-60
2022/07/14 07:44:49;;;;;;;0.70;0.70;;;21.90;63.80;;;;;;5067972;28;43509;-60
2022/07/14 07:47:17;;;;;;;1.08;0.52;;;21.90;64.00;;;;;;5065985;28;43516;-60
2022/07/14 07:49:44;;;;;;;0.98;0.80;;;21.90;64.20;;;;;;5066557;28;45011;-60
2022/07/14 07:52:11;;;;;;;0.88;0.63;;;21.90;64.30;;;;;;5080531;28;43557;-59
2022/07/14 07:54:39;;;;;;;1.08;0.68;;;21.90;64.30;;;;;;5067596;27;43464;-60
2022/07/14 07:57:26;;;;;;;0.63;0.63;;;22.00;64.30;;;;;;5066964;28;43479;-61
2022/07/14 07:59:53;;;;;;;1.95;0.70;;;22.00;64.40;;;;;;5070251;27;45159;-59
2022/07/14 08:02:24;;;;;;;0.90;0.63;;;22.00;64.40;;;;;;5079818;28;43922;-59
2022/07/14 08:04:52;;;;;;;0.85;0.60;;;22.00;64.40;;;;;;5070294;28;43489;-60
2022/07/14 08:07:20;;;;;;;0.80;0.60;;;22.00;64.30;;;;;;5074118;27;43612;-60
2022/07/14 08:09:48;;;;;;;0.95;0.65;;;22.00;64.30;;;;;;5065275;28;44993;-60
2022/07/14 08:12:22;;;;;;;1.05;0.65;;;22.00;64.30;;;;;;5067892;27;43514;-60
2022/07/14 08:14:50;;;;;;;1.38;0.73;;;22.00;64.30;;;;;;5066088;28;43475;-60
2022/07/14 08:17:18;;;;;;;1.33;0.70;;;22.00;64.30;;;;;;5065986;28;43552;-60
2022/07/14 08:19:46;;;;;;;1.27;0.80;;;22.00;64.30;;;;;;5066558;28;44167;-60
2022/07/14 08:22:15;;;;;;;1.15;0.82;;;22.00;64.30;;;;;;5066996;27;43972;-59
2022/07/14 08:24:42;;;;;;;1.95;0.63;;;22.00;64.30;;;;;;5065385;28;43390;-60
2022/07/14 08:27:09;;;;;;;2.05;0.40;;;22.00;64.20;;;;;;5064814;28;43648;-60
2022/07/14 08:29:36;;;;;;;1.40;0.80;;;22.00;64.20;;;;;;5066281;28;44992;-59
2022/07/14 08:32:05;;;;;;;1.05;0.70;;;22.00;64.20;;;;;;5072087;27;43522;-59
2022/07/14 08:34:32;;;;;;;1.88;0.70;;;22.00;64.20;;;;;;5076836;27;43422;-59
2022/07/14 08:37:00;;;;;;;0.40;0.32;;;22.00;64.20;;;;;;5070707;28;43553;-59
2022/07/14 08:39:28;;;;;;;2.63;0.75;;;22.00;64.20;;;;;;5075624;27;43871;-59
2022/07/14 08:41:56;;;;;;;1.45;0.80;;;22.00;64.10;;;;;;5066189;28;43968;-59
2022/07/14 08:44:25;;;;;;;1.05;0.50;;;22.00;64.10;;;;;;5065331;28;43395;-59
2022/07/14 08:46:56;;;;;;;1.63;0.70;;;22.10;64.10;;;;;;5065533;28;43640;-59
2022/07/14 08:49:23;;;;;;;2.50;0.60;;;22.10;64.10;;;;;;5067833;28;44396;-59
2022/07/14 08:52:11;;;;;;;0.57;0.38;;;22.10;64.10;;;;;;5076579;27;43627;-59
2022/07/14 08:54:39;;;;;;;1.27;0.70;;;22.10;64.10;;;;;;5065880;28;43400;-59
2022/07/14 08:57:06;;;;;;;1.25;0.70;;;22.00;64.00;;;;;;5065669;28;43576;-59
2022/07/14 08:59:34;;;;;;;0.52;0.40;;;22.10;64.00;;;;;;5078402;27;43951;-59
2022/07/14 09:02:01;;;;;;;0.93;0.50;;;22.10;64.00;;;;;;5068820;28;44139;-60
2022/07/14 09:04:28;;;;;;;1.20;0.60;;;22.10;64.00;;;;;;5065976;28;43444;-60
2022/07/14 09:06:56;;;;;;;0.85;0.40;;;22.10;64.00;;;;;;5079116;28;43581;-60
2022/07/14 09:09:31;;;;;;;0.73;0.63;;;22.10;64.00;;;;;;5067186;27;44229;-60
2022/07/14 09:12:05;;;;;;;0.63;0.45;;;22.10;64.00;;;;;;5064454;28;44039;-59
2022/07/14 09:17:25;;;;;;;0.43;0.43;;;22.10;64.00;;;;;;5066185;28;43574;-60
2022/07/14 09:20:11;;;;;;;0.45;0.40;;;22.10;63.90;;;;;;5064419;28;45067;-60
2022/07/14 09:22:40;;;;;;;0.98;0.50;;;22.10;63.90;;;;;;5065574;28;44335;-60
2022/07/14 09:25:11;;;;;;;0.85;0.40;;;22.10;63.90;;;;;;5066544;27;43476;-60
2022/07/14 09:27:39;;;;;;;0.95;0.50;;;22.10;63.90;;;;;;5065008;28;43798;-60
2022/07/14 09:30:10;;;;;;;1.20;0.70;;;22.10;63.80;;;;;;5064822;28;46368;-60
2022/07/14 09:32:56;;;;;;;0.75;0.50;;;22.10;63.90;;;;;;5070295;28;43816;-59
2022/07/14 09:35:38;;;;;;;0.73;0.45;;;22.10;63.80;;;;;;5076474;28;43475;-59
2022/07/14 09:38:23;;;;;;;0.60;0.52;;;22.10;63.80;;;;;;5063742;28;43498;-60
2022/07/14 09:40:50;;;;;;;0.90;0.65;;;22.20;63.80;;;;;;5071643;27;44989;-60
2022/07/14 09:43:19;;;;;;;0.38;0.30;;;22.20;63.80;;;;;;5066857;28;43963;-60
2022/07/14 09:45:50;;;;;;;0.90;0.80;;;22.20;63.80;;;;;;5080845;28;43548;-60
2022/07/14 09:48:20;;;;;;;0.52;0.50;;;22.20;63.70;;;;;;5074123;28;43548;-60
2022/07/14 09:50:57;;;;;;;0.82;0.52;;;22.20;63.90;;;;;;5069684;28;44724;-60
2022/07/14 09:53:26;;;;;;;0.93;0.52;;;22.20;63.80;;;;;;5073873;28;43442;-59
2022/07/14 09:55:59;;;;;;;0.70;0.45;;;22.20;63.80;;;;;;5080560;28;43453;-60
2022/07/14 09:58:52;;;;;;;1.98;0.50;;;22.20;63.80;;;;;;5072406;28;43405;-61
2022/07/14 10:01:19;;;;;;;0.70;0.47;;;22.30;63.70;;;;;;5077070;27;44941;-59
2022/07/14 10:03:51;;;;;;;0.93;0.70;;;22.30;63.70;;;;;;5064733;28;44050;-60
2022/07/14 10:06:20;;;;;;;0.50;0.50;;;22.30;63.80;;;;;;5077722;28;43428;-60
2022/07/14 10:09:06;;;;;;;1.33;0.70;;;22.30;63.80;;;;;;5075060;28;43494;-60
2022/07/14 10:11:34;;;;;;;0.77;0.53;;;22.40;63.90;;;;;;5073681;28;44677;-59
2022/07/14 10:14:02;;;;;;;0.90;0.50;;;22.40;63.80;;;;;;5080059;28;43530;-60
2022/07/14 10:16:34;;;;;;;1.40;0.70;;;22.40;63.80;;;;;;5077655;28;43494;-61
2022/07/14 10:19:03;;;;;;;0.90;0.60;;;22.30;63.80;;;;;;5079905;28;43599;-61
2022/07/14 10:21:39;;;;;;;0.80;0.60;;;22.40;63.90;;;;;;5076442;27;44739;-60
2022/07/14 10:24:08;;;;;;;0.70;0.30;;;22.40;63.90;;;;;;5076499;28;43448;-61
2022/07/14 10:26:37;;;;;;;1.48;0.60;;;22.40;63.80;;;;;;5069242;27;43429;-61
2022/07/14 10:29:08;;;;;;;0.40;0.30;;;22.40;63.80;;;;;;5074521;28;43545;-61
2022/07/14 10:31:54;;;;;;;0.50;0.50;;;22.40;63.80;;;;;;5070994;28;43959;-60
2022/07/14 10:34:24;;;;;;;0.70;0.70;;;22.40;63.80;;;;;;5077724;28;43975;-61
2022/07/14 10:37:43;;;;;;;0.80;0.32;;;22.40;63.80;;;;;;5075840;27;43440;-61
2022/07/14 10:40:31;;;;;;;0.95;0.43;;;22.40;63.70;;;;;;5017311;28;43630;-60
2022/07/14 10:43:12;;;;;;;1.13;0.60;;;22.40;63.70;;;;;;5017984;28;45002;-61
2022/07/14 10:45:53;;;;;;;0.90;0.50;;;22.40;63.80;;;;;;5061183;27;44480;-60
2022/07/14 10:48:35;;;;;;;1.10;0.50;;;22.40;63.70;;;;;;5077780;27;43407;-60
2022/07/14 10:51:18;;;;;;;0.60;0.45;;;22.40;63.80;;;;;;5072841;27;43568;-60
2022/07/14 10:54:05;;;;;;;0.70;0.55;;;22.40;63.70;;;;;;5062993;28;45059;-61
2022/07/14 10:57:14;;;;;;;1.17;0.60;;;22.50;63.60;;;;;;5070397;28;43501;-61
2022/07/14 10:59:43;;;;;;;2.80;0.50;;;22.50;63.70;;;;;;5078793;28;43548;-60
2022/07/14 11:02:14;;;;;;;0.73;0.50;;;22.50;63.80;;;;;;5078409;28;43493;-60
2022/07/14 11:04:58;;;;;;;;;;;22.50;63.70;;;;;;5077182;28;44978;-61
2022/07/14 11:07:47;;;;;;;1.85;0.65;;;22.50;63.80;;;;;;5078489;28;43497;-61
2022/07/14 11:10:18;;;;;;;0.68;0.68;;;22.50;63.90;;;;;;5074502;28;43436;-61
2022/07/14 11:13:18;;;;;;;0.57;0.32;;;22.50;63.90;;;;;;5075053;27;43540;-60
2022/07/14 11:15:53;;;;;;;1.77;0.50;;;22.50;63.90;;;;;;5042686;28;45008;-61
2022/07/14 11:18:21;;;;;;;1.17;0.43;;;22.50;63.90;;;;;;5071247;28;43503;-61
2022/07/14 11:21:12;;;;;;;1.05;0.60;;;22.50;63.90;;;;;;5078062;28;43554;-61
2022/07/14 11:23:54;;;;;;;1.10;0.40;;;22.50;63.80;;;;;;5076692;27;43564;-61
2022/07/14 11:26:42;;;;;;;1.35;0.60;;;22.50;63.80;;;;;;5072563;28;45366;-60
2022/07/14 11:29:15;;;;;;;0.43;0.40;;;22.50;63.70;;;;;;5079217;28;43390;-61
2022/07/14 11:31:48;;;;;;;1.08;0.60;;;22.60;63.70;;;;;;5074381;28;43398;-61
2022/07/14 11:37:15;;;;;;;0.32;0.32;;;22.60;63.70;;;;;;5075773;28;45103;-61
2022/07/14 11:40:42;;;;;;;0.88;0.50;;;22.60;63.80;;;;;;5079811;28;43694;-61
2022/07/14 11:43:31;;;;;;;0.47;0.30;;;22.60;63.70;;;;;;5069892;27;43449;-61
2022/07/14 11:46:01;;;;;;;0.30;0.30;;;22.60;63.70;;;;;;5079113;28;43605;-61
2022/07/14 11:48:34;;;;;;;0.80;0.40;;;22.60;63.70;;;;;;5075202;27;44648;-61
2022/07/14 11:51:10;;;;;;;3.13;0.40;;;22.60;63.70;;;;;;5083031;27;43457;-61
2022/07/14 11:53:39;;;;;;;1.60;0.40;;;22.60;63.70;;;;;;5077203;27;43560;-61
2022/07/14 11:56:08;;;;;;;0.63;0.47;;;22.60;63.60;;;;;;5082313;27;44108;-61
2022/07/14 11:58:40;;;;;;;1.67;0.50;;;22.60;63.60;;;;;;5074411;27;44144;-61
2022/07/14 12:01:08;;;;;;;1.45;0.80;;;22.60;63.60;;;;;;5072546;28;43536;-61
2022/07/14 12:03:37;;;;;;;1.13;0.70;;;22.70;63.60;;;;;;5074756;28;43531;-61
2022/07/14 12:06:20;;;;;;;0.57;0.50;;;22.60;63.50;;;;;;5074978;27;43567;-61
2022/07/14 12:08:50;;;;;;;1.15;0.60;;;22.70;63.60;;;;;;5069446;28;45012;-61
2022/07/14 12:11:37;;;;;;;0.40;0.40;;;22.70;63.60;;;;;;5074958;28;43446;-60
2022/07/14 12:14:12;;;;;;;0.60;0.40;;;22.70;63.50;;;;;;5075537;28;43370;-61
2022/07/14 12:16:43;;;;;;;0.30;0.30;;;22.70;63.30;;;;;;5080735;28;44042;-60
2022/07/14 12:19:12;;;;;;;0.88;0.43;;;22.80;63.30;;;;;;5066370;28;44978;-61
2022/07/14 12:21:39;;;;;;;0.63;0.40;;;22.80;63.20;;;;;;5066064;28;44333;-60
2022/07/14 12:24:10;;;;;;;1.42;0.50;;;22.80;63.20;;;;;;5067237;27;43457;-60
2022/07/14 12:26:38;;;;;;;0.45;0.40;;;22.80;63.20;;;;;;5066206;28;43375;-61
2022/07/14 12:29:14;;;;;;;0.70;0.40;;;22.80;63.20;;;;;;5078588;28;44077;-61
2022/07/14 12:31:42;;;;;;;1.17;0.85;;;22.80;63.10;;;;;;5069157;27;43880;-60
2022/07/14 12:34:10;;;;;;;0.70;0.57;;;22.80;63.10;;;;;;5077623;28;43458;-61
2022/07/14 12:36:38;;;;;;;1.58;0.60;;;22.80;63.30;;;;;;5067950;28;43577;-61
2022/07/14 12:39:06;;;;;;;0.60;0.60;;;22.80;63.20;;;;;;5075218;28;44993;-60
2022/07/14 12:41:34;;;;;;;0.65;0.60;;;22.80;63.30;;;;;;5069220;27;43863;-60
2022/07/14 12:44:06;;;;;;;0.55;0.45;;;22.80;63.10;;;;;;5065184;28;43429;-61
2022/07/14 12:46:33;;;;;;;1.38;0.82;;;22.90;63.20;;;;;;5065757;28;43609;-61
2022/07/14 12:49:07;;;;;;;0.95;0.82;;;22.90;63.20;;;;;;5079345;28;44993;-61
2022/07/14 12:51:44;;;;;;;1.13;0.80;;;22.90;63.20;;;;;;5070688;27;43975;-61
2022/07/14 12:54:18;;;;;;;0.93;0.80;;;22.90;63.20;;;;;;5066302;28;43422;-61
2022/07/14 12:57:05;;;;;;;0.80;0.80;;;22.90;63.20;;;;;;5066278;28;43527;-61
2022/07/14 12:59:35;;;;;;;1.23;0.82;;;22.90;63.10;;;;;;5079546;27;45176;-59
2022/07/14 13:02:05;;;;;;;0.85;0.85;;;22.90;63.00;;;;;;5073102;27;44263;-60
2022/07/14 13:04:43;;;;;;;1.30;1.08;;;22.90;63.20;;;;;;5065452;28;43374;-61
2022/07/14 13:07:28;;;;;;;0.90;0.80;;;22.90;63.20;;;;;;5081245;28;43560;-61
2022/07/14 13:10:19;;;;;;;1.52;0.88;;;22.90;63.10;;;;;;5065561;28;45172;-61
2022/07/14 13:12:48;;;;;;;2.90;0.90;;;22.90;63.10;;;;;;5065356;28;43936;-60
2022/07/14 13:15:24;;;;;;;1.10;0.73;;;22.90;62.90;;;;;;5067103;27;43416;-60
2022/07/14 13:18:00;;;;;;;0.90;0.80;;;22.90;63.00;;;;;;5064666;28;43528;-60
2022/07/14 13:20:49;;;;;;;1.00;1.00;;;23.00;62.90;;;;;;5065492;28;44904;-61
2022/07/14 13:23:34;;;;;;;1.65;1.10;;;23.00;62.90;;;;;;5075445;28;44283;-61